sensor_id;sensor_type;location;lat;lon;timestamp;P1;durP1;ratioP1;P2;durP2;ratioP2
17384;SDS011;8810;48.680;8.894;2022-10-29T00:00:03;7.57;;;3.57;;
17384;SDS011;8810;48.680;8.894;2022-10-29T00:02:31;10.00;;;3.93;;
17384;SDS011;8810;48.680;8.894;2022-10-29T00:04:58;9.60;;;3.73;;
17384;SDS011;8810;48.680;8.894;2022-10-29T00:07:24;12.30;;;3.93;;
17384;SDS011;8810;48.680;8.894;2022-10-29T00:09:51;15.83;;;4.03;;
17384;SDS011;8810;48.680;8.894;2022-10-29T00:12:18;8.53;;;3.83;;
17384;SDS011;8810;48.680;8.894;2022-10-29T00:14:45;11.50;;;4.10;;
17384;SDS011;8810;48.680;8.894;2022-10-29T00:17:13;9.57;;;4.20;;
17384;SDS011;8810;48.680;8.894;2022-10-29T00:19:40;16.30;;;5.00;;
17384;SDS011;8810;48.680;8.894;2022-10-29T00:22:06;15.63;;;4.23;;
17384;SDS011;8810;48.680;8.894;2022-10-29T00:24:33;10.27;;;3.53;;
17384;SDS011;8810;48.680;8.894;2022-10-29T00:27:00;12.07;;;4.27;;
17384;SDS011;8810;48.680;8.894;2022-10-29T00:29:27;11.60;;;3.97;;
17384;SDS011;8810;48.680;8.894;2022-10-29T00:31:54;12.90;;;3.73;;
17384;SDS011;8810;48.680;8.894;2022-10-29T00:34:22;9.60;;;3.33;;
17384;SDS011;8810;48.680;8.894;2022-10-29T00:36:49;8.17;;;3.33;;
17384;SDS011;8810;48.680;8.894;2022-10-29T00:39:16;11.57;;;3.53;;
17384;SDS011;8810;48.680;8.894;2022-10-29T00:41:43;11.90;;;3.87;;
17384;SDS011;8810;48.680;8.894;2022-10-29T00:44:22;12.20;;;3.97;;
17384;SDS011;8810;48.680;8.894;2022-10-29T00:46:53;8.50;;;3.67;;
17384;SDS011;8810;48.680;8.894;2022-10-29T00:49:26;9.27;;;3.73;;
17384;SDS011;8810;48.680;8.894;2022-10-29T00:51:54;13.77;;;3.60;;
17384;SDS011;8810;48.680;8.894;2022-10-29T00:54:23;9.63;;;3.97;;
17384;SDS011;8810;48.680;8.894;2022-10-29T00:56:52;11.33;;;3.30;;
17384;SDS011;8810;48.680;8.894;2022-10-29T00:59:23;13.67;;;3.77;;
17384;SDS011;8810;48.680;8.894;2022-10-29T01:01:50;10.83;;;3.37;;
17384;SDS011;8810;48.680;8.894;2022-10-29T01:04:17;8.27;;;4.17;;
17384;SDS011;8810;48.680;8.894;2022-10-29T01:06:47;8.93;;;3.47;;
17384;SDS011;8810;48.680;8.894;2022-10-29T01:09:14;12.27;;;3.40;;
17384;SDS011;8810;48.680;8.894;2022-10-29T01:11:42;9.57;;;3.40;;
17384;SDS011;8810;48.680;8.894;2022-10-29T01:14:21;11.83;;;3.63;;
17384;SDS011;8810;48.680;8.894;2022-10-29T01:16:59;9.47;;;3.30;;
17384;SDS011;8810;48.680;8.894;2022-10-29T01:19:44;6.97;;;3.17;;
17384;SDS011;8810;48.680;8.894;2022-10-29T01:22:27;16.23;;;3.50;;
17384;SDS011;8810;48.680;8.894;2022-10-29T01:28:05;11.83;;;3.57;;
17384;SDS011;8810;48.680;8.894;2022-10-29T01:30:49;10.63;;;3.20;;
17384;SDS011;8810;48.680;8.894;2022-10-29T01:33:33;14.07;;;3.67;;
17384;SDS011;8810;48.680;8.894;2022-10-29T01:36:06;10.07;;;3.27;;
17384;SDS011;8810;48.680;8.894;2022-10-29T01:38:45;13.27;;;3.30;;
17384;SDS011;8810;48.680;8.894;2022-10-29T01:41:18;16.77;;;3.43;;
17384;SDS011;8810;48.680;8.894;2022-10-29T01:43:48;7.63;;;3.53;;
17384;SDS011;8810;48.680;8.894;2022-10-29T01:46:22;11.53;;;3.90;;
17384;SDS011;8810;48.680;8.894;2022-10-29T01:48:55;13.10;;;3.70;;
17384;SDS011;8810;48.680;8.894;2022-10-29T01:51:28;6.87;;;3.20;;
17384;SDS011;8810;48.680;8.894;2022-10-29T01:53:57;8.50;;;3.40;;
17384;SDS011;8810;48.680;8.894;2022-10-29T01:56:25;8.20;;;3.37;;
17384;SDS011;8810;48.680;8.894;2022-10-29T01:58:53;10.67;;;3.60;;
17384;SDS011;8810;48.680;8.894;2022-10-29T02:01:29;11.60;;;3.57;;
17384;SDS011;8810;48.680;8.894;2022-10-29T02:04:08;13.60;;;3.47;;
17384;SDS011;8810;48.680;8.894;2022-10-29T02:06:50;8.30;;;3.93;;
17384;SDS011;8810;48.680;8.894;2022-10-29T02:09:25;10.43;;;3.30;;
17384;SDS011;8810;48.680;8.894;2022-10-29T02:11:57;16.13;;;3.60;;
17384;SDS011;8810;48.680;8.894;2022-10-29T02:14:27;10.07;;;3.37;;
17384;SDS011;8810;48.680;8.894;2022-10-29T02:16:59;11.20;;;3.23;;
17384;SDS011;8810;48.680;8.894;2022-10-29T02:19:28;15.40;;;3.30;;
17384;SDS011;8810;48.680;8.894;2022-10-29T02:21:55;13.63;;;3.53;;
17384;SDS011;8810;48.680;8.894;2022-10-29T02:24:22;12.70;;;3.73;;
17384;SDS011;8810;48.680;8.894;2022-10-29T02:26:49;9.73;;;3.80;;
17384;SDS011;8810;48.680;8.894;2022-10-29T02:29:16;9.83;;;3.60;;
17384;SDS011;8810;48.680;8.894;2022-10-29T02:31:43;10.70;;;3.67;;
17384;SDS011;8810;48.680;8.894;2022-10-29T02:34:11;13.53;;;3.70;;
17384;SDS011;8810;48.680;8.894;2022-10-29T02:36:38;10.30;;;3.57;;
17384;SDS011;8810;48.680;8.894;2022-10-29T02:39:05;10.53;;;3.50;;
17384;SDS011;8810;48.680;8.894;2022-10-29T02:41:32;10.90;;;3.60;;
17384;SDS011;8810;48.680;8.894;2022-10-29T02:43:59;12.27;;;3.60;;
17384;SDS011;8810;48.680;8.894;2022-10-29T02:46:25;11.27;;;3.73;;
17384;SDS011;8810;48.680;8.894;2022-10-29T02:48:54;12.53;;;3.97;;
17384;SDS011;8810;48.680;8.894;2022-10-29T02:51:22;12.30;;;3.57;;
17384;SDS011;8810;48.680;8.894;2022-10-29T02:53:49;11.43;;;3.57;;
17384;SDS011;8810;48.680;8.894;2022-10-29T02:56:16;8.73;;;3.10;;
17384;SDS011;8810;48.680;8.894;2022-10-29T02:58:42;12.07;;;3.80;;
17384;SDS011;8810;48.680;8.894;2022-10-29T03:01:09;12.20;;;3.13;;
17384;SDS011;8810;48.680;8.894;2022-10-29T03:03:36;13.87;;;3.73;;
17384;SDS011;8810;48.680;8.894;2022-10-29T03:06:03;8.93;;;3.33;;
17384;SDS011;8810;48.680;8.894;2022-10-29T03:08:38;10.97;;;3.40;;
17384;SDS011;8810;48.680;8.894;2022-10-29T03:11:04;13.87;;;3.63;;
17384;SDS011;8810;48.680;8.894;2022-10-29T03:13:31;10.27;;;3.37;;
17384;SDS011;8810;48.680;8.894;2022-10-29T03:15:58;10.07;;;3.17;;
17384;SDS011;8810;48.680;8.894;2022-10-29T03:18:25;13.10;;;3.57;;
17384;SDS011;8810;48.680;8.894;2022-10-29T03:20:52;18.97;;;3.83;;
17384;SDS011;8810;48.680;8.894;2022-10-29T03:23:18;9.60;;;3.47;;
17384;SDS011;8810;48.680;8.894;2022-10-29T03:25:49;14.17;;;3.33;;
17384;SDS011;8810;48.680;8.894;2022-10-29T03:28:17;12.00;;;3.40;;
17384;SDS011;8810;48.680;8.894;2022-10-29T03:30:44;13.67;;;3.37;;
17384;SDS011;8810;48.680;8.894;2022-10-29T03:33:11;6.97;;;3.20;;
17384;SDS011;8810;48.680;8.894;2022-10-29T03:35:38;14.43;;;4.40;;
17384;SDS011;8810;48.680;8.894;2022-10-29T03:38:05;11.27;;;4.90;;
17384;SDS011;8810;48.680;8.894;2022-10-29T03:40:32;10.50;;;4.60;;
17384;SDS011;8810;48.680;8.894;2022-10-29T03:43:00;10.73;;;4.22;;
17384;SDS011;8810;48.680;8.894;2022-10-29T03:45:27;14.40;;;3.97;;
17384;SDS011;8810;48.680;8.894;2022-10-29T03:47:54;15.65;;;4.70;;
17384;SDS011;8810;48.680;8.894;2022-10-29T03:50:21;10.37;;;3.57;;
17384;SDS011;8810;48.680;8.894;2022-10-29T03:52:48;9.67;;;3.50;;
17384;SDS011;8810;48.680;8.894;2022-10-29T03:55:14;12.97;;;3.93;;
17384;SDS011;8810;48.680;8.894;2022-10-29T03:57:41;7.70;;;3.30;;
17384;SDS011;8810;48.680;8.894;2022-10-29T04:00:10;9.90;;;3.40;;
17384;SDS011;8810;48.680;8.894;2022-10-29T04:02:37;10.20;;;3.70;;
17384;SDS011;8810;48.680;8.894;2022-10-29T04:05:04;13.33;;;3.50;;
17384;SDS011;8810;48.680;8.894;2022-10-29T04:07:31;9.70;;;4.20;;
17384;SDS011;8810;48.680;8.894;2022-10-29T04:09:58;10.53;;;3.87;;
17384;SDS011;8810;48.680;8.894;2022-10-29T04:12:25;13.27;;;4.10;;
17384;SDS011;8810;48.680;8.894;2022-10-29T04:14:52;12.43;;;3.83;;
17384;SDS011;8810;48.680;8.894;2022-10-29T04:17:20;13.60;;;4.47;;
17384;SDS011;8810;48.680;8.894;2022-10-29T04:19:47;8.83;;;3.93;;
17384;SDS011;8810;48.680;8.894;2022-10-29T04:22:14;10.57;;;3.80;;
17384;SDS011;8810;48.680;8.894;2022-10-29T04:24:40;12.37;;;4.33;;
17384;SDS011;8810;48.680;8.894;2022-10-29T04:27:07;11.90;;;4.07;;
17384;SDS011;8810;48.680;8.894;2022-10-29T04:29:34;13.77;;;3.90;;
17384;SDS011;8810;48.680;8.894;2022-10-29T04:32:01;13.60;;;4.30;;
17384;SDS011;8810;48.680;8.894;2022-10-29T04:34:29;11.43;;;3.70;;
17384;SDS011;8810;48.680;8.894;2022-10-29T04:36:56;13.93;;;3.77;;
17384;SDS011;8810;48.680;8.894;2022-10-29T04:39:23;8.03;;;3.67;;
17384;SDS011;8810;48.680;8.894;2022-10-29T04:41:49;10.83;;;3.40;;
17384;SDS011;8810;48.680;8.894;2022-10-29T04:44:16;9.70;;;3.53;;
17384;SDS011;8810;48.680;8.894;2022-10-29T04:46:44;21.57;;;4.70;;
17384;SDS011;8810;48.680;8.894;2022-10-29T04:49:10;8.57;;;3.97;;
17384;SDS011;8810;48.680;8.894;2022-10-29T04:51:39;12.00;;;3.97;;
17384;SDS011;8810;48.680;8.894;2022-10-29T04:54:05;9.13;;;4.07;;
17384;SDS011;8810;48.680;8.894;2022-10-29T04:56:32;14.10;;;4.30;;
17384;SDS011;8810;48.680;8.894;2022-10-29T04:58:59;9.23;;;4.10;;
17384;SDS011;8810;48.680;8.894;2022-10-29T05:01:26;10.30;;;3.90;;
17384;SDS011;8810;48.680;8.894;2022-10-29T05:03:53;11.27;;;4.00;;
17384;SDS011;8810;48.680;8.894;2022-10-29T05:06:19;13.07;;;4.30;;
17384;SDS011;8810;48.680;8.894;2022-10-29T05:08:47;8.43;;;4.20;;
17384;SDS011;8810;48.680;8.894;2022-10-29T05:11:14;14.33;;;4.60;;
17384;SDS011;8810;48.680;8.894;2022-10-29T05:13:41;14.40;;;3.97;;
17384;SDS011;8810;48.680;8.894;2022-10-29T05:16:09;11.17;;;4.00;;
17384;SDS011;8810;48.680;8.894;2022-10-29T05:18:36;11.33;;;3.57;;
17384;SDS011;8810;48.680;8.894;2022-10-29T05:21:03;12.23;;;4.17;;
17384;SDS011;8810;48.680;8.894;2022-10-29T05:23:30;7.40;;;3.60;;
17384;SDS011;8810;48.680;8.894;2022-10-29T05:25:59;11.20;;;3.50;;
17384;SDS011;8810;48.680;8.894;2022-10-29T05:28:25;14.40;;;4.10;;
17384;SDS011;8810;48.680;8.894;2022-10-29T05:30:52;9.60;;;4.03;;
17384;SDS011;8810;48.680;8.894;2022-10-29T05:33:20;10.20;;;3.83;;
17384;SDS011;8810;48.680;8.894;2022-10-29T05:35:47;10.07;;;3.63;;
17384;SDS011;8810;48.680;8.894;2022-10-29T05:38:15;9.10;;;3.87;;
17384;SDS011;8810;48.680;8.894;2022-10-29T05:40:42;7.57;;;3.57;;
17384;SDS011;8810;48.680;8.894;2022-10-29T05:43:10;11.37;;;3.57;;
17384;SDS011;8810;48.680;8.894;2022-10-29T05:45:38;8.17;;;3.47;;
17384;SDS011;8810;48.680;8.894;2022-10-29T05:48:05;10.87;;;3.50;;
17384;SDS011;8810;48.680;8.894;2022-10-29T05:50:32;12.10;;;4.23;;
17384;SDS011;8810;48.680;8.894;2022-10-29T05:53:00;8.83;;;3.60;;
17384;SDS011;8810;48.680;8.894;2022-10-29T05:55:28;13.23;;;4.07;;
17384;SDS011;8810;48.680;8.894;2022-10-29T05:57:55;12.47;;;3.37;;
17384;SDS011;8810;48.680;8.894;2022-10-29T06:00:24;9.17;;;3.80;;
17384;SDS011;8810;48.680;8.894;2022-10-29T06:02:52;10.73;;;3.97;;
17384;SDS011;8810;48.680;8.894;2022-10-29T06:05:19;8.43;;;3.20;;
17384;SDS011;8810;48.680;8.894;2022-10-29T06:07:46;11.47;;;3.60;;
17384;SDS011;8810;48.680;8.894;2022-10-29T06:10:18;11.57;;;3.47;;
17384;SDS011;8810;48.680;8.894;2022-10-29T06:12:45;11.27;;;3.20;;
17384;SDS011;8810;48.680;8.894;2022-10-29T06:15:12;10.03;;;3.57;;
17384;SDS011;8810;48.680;8.894;2022-10-29T06:17:40;10.37;;;3.63;;
17384;SDS011;8810;48.680;8.894;2022-10-29T06:20:08;7.40;;;3.23;;
17384;SDS011;8810;48.680;8.894;2022-10-29T06:22:36;10.47;;;4.03;;
17384;SDS011;8810;48.680;8.894;2022-10-29T06:25:03;10.23;;;4.10;;
17384;SDS011;8810;48.680;8.894;2022-10-29T06:27:31;9.40;;;3.63;;
17384;SDS011;8810;48.680;8.894;2022-10-29T06:29:58;13.60;;;4.17;;
17384;SDS011;8810;48.680;8.894;2022-10-29T06:32:24;9.57;;;3.53;;
17384;SDS011;8810;48.680;8.894;2022-10-29T06:34:53;10.07;;;3.73;;
17384;SDS011;8810;48.680;8.894;2022-10-29T06:37:19;8.07;;;4.20;;
17384;SDS011;8810;48.680;8.894;2022-10-29T06:39:47;11.90;;;4.33;;
17384;SDS011;8810;48.680;8.894;2022-10-29T06:42:14;9.83;;;3.63;;
17384;SDS011;8810;48.680;8.894;2022-10-29T06:44:41;11.60;;;4.90;;
17384;SDS011;8810;48.680;8.894;2022-10-29T06:47:08;8.93;;;4.53;;
17384;SDS011;8810;48.680;8.894;2022-10-29T06:49:34;14.57;;;4.57;;
17384;SDS011;8810;48.680;8.894;2022-10-29T06:52:03;10.80;;;3.93;;
17384;SDS011;8810;48.680;8.894;2022-10-29T06:54:30;8.30;;;3.93;;
17384;SDS011;8810;48.680;8.894;2022-10-29T06:56:57;11.37;;;4.23;;
17384;SDS011;8810;48.680;8.894;2022-10-29T06:59:23;14.67;;;4.17;;
17384;SDS011;8810;48.680;8.894;2022-10-29T07:01:50;15.43;;;4.23;;
17384;SDS011;8810;48.680;8.894;2022-10-29T07:04:17;21.90;;;4.30;;
17384;SDS011;8810;48.680;8.894;2022-10-29T07:06:45;12.43;;;4.30;;
17384;SDS011;8810;48.680;8.894;2022-10-29T07:09:13;20.97;;;4.33;;
17384;SDS011;8810;48.680;8.894;2022-10-29T07:11:40;9.00;;;4.07;;
17384;SDS011;8810;48.680;8.894;2022-10-29T07:14:07;16.63;;;3.60;;
17384;SDS011;8810;48.680;8.894;2022-10-29T07:16:34;18.33;;;3.70;;
17384;SDS011;8810;48.680;8.894;2022-10-29T07:19:01;19.27;;;3.80;;
17384;SDS011;8810;48.680;8.894;2022-10-29T07:21:28;15.27;;;3.63;;
17384;SDS011;8810;48.680;8.894;2022-10-29T07:23:55;8.67;;;3.97;;
17384;SDS011;8810;48.680;8.894;2022-10-29T07:26:23;13.70;;;3.97;;
17384;SDS011;8810;48.680;8.894;2022-10-29T07:28:53;13.80;;;4.03;;
17384;SDS011;8810;48.680;8.894;2022-10-29T07:31:20;17.07;;;4.60;;
17384;SDS011;8810;48.680;8.894;2022-10-29T07:33:47;11.23;;;4.40;;
17384;SDS011;8810;48.680;8.894;2022-10-29T07:36:14;17.00;;;4.40;;
17384;SDS011;8810;48.680;8.894;2022-10-29T07:38:41;11.40;;;4.60;;
17384;SDS011;8810;48.680;8.894;2022-10-29T07:41:08;12.23;;;3.83;;
17384;SDS011;8810;48.680;8.894;2022-10-29T07:43:36;17.97;;;3.67;;
17384;SDS011;8810;48.680;8.894;2022-10-29T07:46:03;14.97;;;4.33;;
17384;SDS011;8810;48.680;8.894;2022-10-29T07:48:30;13.67;;;3.60;;
17384;SDS011;8810;48.680;8.894;2022-10-29T07:50:57;9.57;;;3.93;;
17384;SDS011;8810;48.680;8.894;2022-10-29T07:53:24;8.77;;;3.70;;
17384;SDS011;8810;48.680;8.894;2022-10-29T07:55:52;15.60;;;3.77;;
17384;SDS011;8810;48.680;8.894;2022-10-29T07:58:19;11.33;;;3.87;;
17384;SDS011;8810;48.680;8.894;2022-10-29T08:00:47;14.48;;;3.85;;
17384;SDS011;8810;48.680;8.894;2022-10-29T08:03:14;15.53;;;3.63;;
17384;SDS011;8810;48.680;8.894;2022-10-29T08:05:41;12.23;;;3.63;;
17384;SDS011;8810;48.680;8.894;2022-10-29T08:08:07;11.05;;;3.67;;
17384;SDS011;8810;48.680;8.894;2022-10-29T08:10:35;14.43;;;4.35;;
17384;SDS011;8810;48.680;8.894;2022-10-29T08:13:02;13.38;;;3.30;;
17384;SDS011;8810;48.680;8.894;2022-10-29T08:15:31;11.80;;;3.42;;
17384;SDS011;8810;48.680;8.894;2022-10-29T08:18:00;9.65;;;3.60;;
17384;SDS011;8810;48.680;8.894;2022-10-29T08:20:28;13.20;;;3.55;;
17384;SDS011;8810;48.680;8.894;2022-10-29T08:22:57;10.43;;;3.67;;
17384;SDS011;8810;48.680;8.894;2022-10-29T08:25:25;14.38;;;3.63;;
17384;SDS011;8810;48.680;8.894;2022-10-29T08:27:58;10.75;;;3.70;;
17384;SDS011;8810;48.680;8.894;2022-10-29T08:30:26;13.10;;;3.10;;
17384;SDS011;8810;48.680;8.894;2022-10-29T08:32:53;9.23;;;3.45;;
17384;SDS011;8810;48.680;8.894;2022-10-29T08:35:22;17.92;;;3.78;;
17384;SDS011;8810;48.680;8.894;2022-10-29T08:37:48;12.85;;;3.13;;
17384;SDS011;8810;48.680;8.894;2022-10-29T08:40:17;10.82;;;3.60;;
17384;SDS011;8810;48.680;8.894;2022-10-29T08:45:57;13.65;;;3.58;;
17384;SDS011;8810;48.680;8.894;2022-10-29T08:48:27;18.90;;;4.20;;
17384;SDS011;8810;48.680;8.894;2022-10-29T08:51:04;11.82;;;4.28;;
17384;SDS011;8810;48.680;8.894;2022-10-29T08:53:39;8.30;;;4.22;;
17384;SDS011;8810;48.680;8.894;2022-10-29T08:56:11;9.32;;;3.75;;
17384;SDS011;8810;48.680;8.894;2022-10-29T08:58:42;8.63;;;3.97;;
17384;SDS011;8810;48.680;8.894;2022-10-29T09:01:18;13.25;;;4.28;;
17384;SDS011;8810;48.680;8.894;2022-10-29T09:03:47;12.90;;;4.20;;
17384;SDS011;8810;48.680;8.894;2022-10-29T09:06:17;10.13;;;4.15;;
17384;SDS011;8810;48.680;8.894;2022-10-29T09:08:53;13.85;;;3.97;;
17384;SDS011;8810;48.680;8.894;2022-10-29T09:11:35;10.48;;;4.18;;
17384;SDS011;8810;48.680;8.894;2022-10-29T09:14:20;14.77;;;4.75;;
17384;SDS011;8810;48.680;8.894;2022-10-29T09:17:06;13.77;;;3.97;;
17384;SDS011;8810;48.680;8.894;2022-10-29T09:19:47;9.60;;;4.28;;
17384;SDS011;8810;48.680;8.894;2022-10-29T09:22:32;12.15;;;4.88;;
17384;SDS011;8810;48.680;8.894;2022-10-29T09:25:07;14.57;;;3.85;;
17384;SDS011;8810;48.680;8.894;2022-10-29T09:27:45;14.13;;;3.83;;
17384;SDS011;8810;48.680;8.894;2022-10-29T09:30:22;13.52;;;3.72;;
17384;SDS011;8810;48.680;8.894;2022-10-29T09:32:54;7.47;;;2.90;;
17384;SDS011;8810;48.680;8.894;2022-10-29T09:35:28;9.80;;;3.50;;
17384;SDS011;8810;48.680;8.894;2022-10-29T09:38:05;8.27;;;3.13;;
17384;SDS011;8810;48.680;8.894;2022-10-29T09:40:38;8.32;;;3.10;;
17384;SDS011;8810;48.680;8.894;2022-10-29T09:43:07;7.35;;;3.22;;
17384;SDS011;8810;48.680;8.894;2022-10-29T09:45:45;9.18;;;3.55;;
17384;SDS011;8810;48.680;8.894;2022-10-29T09:48:21;16.15;;;4.03;;
17384;SDS011;8810;48.680;8.894;2022-10-29T09:50:56;10.13;;;3.20;;
17384;SDS011;8810;48.680;8.894;2022-10-29T09:53:29;11.73;;;3.03;;
17384;SDS011;8810;48.680;8.894;2022-10-29T09:55:56;14.02;;;3.35;;
17384;SDS011;8810;48.680;8.894;2022-10-29T09:58:23;11.00;;;3.10;;
17384;SDS011;8810;48.680;8.894;2022-10-29T10:00:52;10.93;;;3.15;;
17384;SDS011;8810;48.680;8.894;2022-10-29T10:03:20;12.18;;;3.30;;
17384;SDS011;8810;48.680;8.894;2022-10-29T10:05:58;10.00;;;3.00;;
17384;SDS011;8810;48.680;8.894;2022-10-29T10:08:26;12.05;;;2.90;;
17384;SDS011;8810;48.680;8.894;2022-10-29T10:10:55;11.25;;;2.75;;
17384;SDS011;8810;48.680;8.894;2022-10-29T10:13:24;11.82;;;3.05;;
17384;SDS011;8810;48.680;8.894;2022-10-29T10:15:54;8.68;;;3.00;;
17384;SDS011;8810;48.680;8.894;2022-10-29T10:18:23;11.40;;;3.50;;
17384;SDS011;8810;48.680;8.894;2022-10-29T10:20:59;13.95;;;3.45;;
17384;SDS011;8810;48.680;8.894;2022-10-29T10:23:29;9.70;;;2.65;;
17384;SDS011;8810;48.680;8.894;2022-10-29T10:26:23;9.73;;;2.85;;
17384;SDS011;8810;48.680;8.894;2022-10-29T10:29:09;7.60;;;2.88;;
17384;SDS011;8810;48.680;8.894;2022-10-29T10:31:39;12.43;;;2.80;;
17384;SDS011;8810;48.680;8.894;2022-10-29T10:34:07;11.32;;;2.83;;
17384;SDS011;8810;48.680;8.894;2022-10-29T10:36:41;9.43;;;2.65;;
17384;SDS011;8810;48.680;8.894;2022-10-29T10:39:16;9.20;;;2.67;;
17384;SDS011;8810;48.680;8.894;2022-10-29T10:41:54;12.75;;;2.92;;
17384;SDS011;8810;48.680;8.894;2022-10-29T10:44:22;9.32;;;2.85;;
17384;SDS011;8810;48.680;8.894;2022-10-29T10:46:49;9.30;;;2.75;;
17384;SDS011;8810;48.680;8.894;2022-10-29T10:49:21;10.50;;;2.88;;
17384;SDS011;8810;48.680;8.894;2022-10-29T10:51:56;5.13;;;2.40;;
17384;SDS011;8810;48.680;8.894;2022-10-29T10:54:25;13.38;;;3.25;;
17384;SDS011;8810;48.680;8.894;2022-10-29T10:56:57;11.43;;;3.10;;
17384;SDS011;8810;48.680;8.894;2022-10-29T10:59:33;9.25;;;2.78;;
17384;SDS011;8810;48.680;8.894;2022-10-29T11:02:13;9.13;;;2.78;;
17384;SDS011;8810;48.680;8.894;2022-10-29T11:04:49;14.73;;;3.28;;
17384;SDS011;8810;48.680;8.894;2022-10-29T11:07:22;10.10;;;2.80;;
17384;SDS011;8810;48.680;8.894;2022-10-29T11:09:52;10.57;;;2.88;;
17384;SDS011;8810;48.680;8.894;2022-10-29T11:12:24;14.75;;;3.35;;
17384;SDS011;8810;48.680;8.894;2022-10-29T11:14:57;10.95;;;3.08;;
17384;SDS011;8810;48.680;8.894;2022-10-29T11:17:30;8.45;;;3.03;;
17384;SDS011;8810;48.680;8.894;2022-10-29T11:20:01;7.57;;;2.70;;
17384;SDS011;8810;48.680;8.894;2022-10-29T11:22:33;10.40;;;2.85;;
17384;SDS011;8810;48.680;8.894;2022-10-29T11:25:13;13.32;;;2.90;;
17384;SDS011;8810;48.680;8.894;2022-10-29T11:27:46;13.60;;;2.80;;
17384;SDS011;8810;48.680;8.894;2022-10-29T11:30:18;8.02;;;2.22;;
17384;SDS011;8810;48.680;8.894;2022-10-29T11:32:49;9.43;;;2.83;;
17384;SDS011;8810;48.680;8.894;2022-10-29T11:35:23;12.25;;;2.80;;
17384;SDS011;8810;48.680;8.894;2022-10-29T11:37:59;10.10;;;2.88;;
17384;SDS011;8810;48.680;8.894;2022-10-29T11:40:33;8.52;;;2.40;;
17384;SDS011;8810;48.680;8.894;2022-10-29T11:43:10;6.25;;;2.63;;
17384;SDS011;8810;48.680;8.894;2022-10-29T11:45:40;9.73;;;2.83;;
17384;SDS011;8810;48.680;8.894;2022-10-29T11:48:17;8.35;;;2.63;;
17384;SDS011;8810;48.680;8.894;2022-10-29T11:50:53;8.88;;;3.05;;
17384;SDS011;8810;48.680;8.894;2022-10-29T11:53:36;10.52;;;3.38;;
17384;SDS011;8810;48.680;8.894;2022-10-29T11:56:18;8.93;;;3.20;;
17384;SDS011;8810;48.680;8.894;2022-10-29T11:58:58;9.48;;;2.92;;
17384;SDS011;8810;48.680;8.894;2022-10-29T12:01:32;14.90;;;3.00;;
17384;SDS011;8810;48.680;8.894;2022-10-29T12:04:11;11.32;;;3.28;;
17384;SDS011;8810;48.680;8.894;2022-10-29T12:06:47;7.45;;;2.75;;
17384;SDS011;8810;48.680;8.894;2022-10-29T12:09:31;8.32;;;3.10;;
17384;SDS011;8810;48.680;8.894;2022-10-29T12:12:19;8.68;;;3.17;;
17384;SDS011;8810;48.680;8.894;2022-10-29T12:14:53;11.30;;;3.28;;
17384;SDS011;8810;48.680;8.894;2022-10-29T12:17:34;9.65;;;3.15;;
17384;SDS011;8810;48.680;8.894;2022-10-29T12:20:09;11.90;;;3.50;;
17384;SDS011;8810;48.680;8.894;2022-10-29T12:22:41;11.88;;;3.15;;
17384;SDS011;8810;48.680;8.894;2022-10-29T12:25:19;12.82;;;3.20;;
17384;SDS011;8810;48.680;8.894;2022-10-29T12:27:53;12.10;;;3.22;;
17384;SDS011;8810;48.680;8.894;2022-10-29T12:30:29;10.00;;;3.33;;
17384;SDS011;8810;48.680;8.894;2022-10-29T12:33:00;9.45;;;2.60;;
17384;SDS011;8810;48.680;8.894;2022-10-29T12:35:35;11.38;;;2.85;;
17384;SDS011;8810;48.680;8.894;2022-10-29T12:38:20;13.77;;;2.92;;
17384;SDS011;8810;48.680;8.894;2022-10-29T12:41:11;11.10;;;2.97;;
17384;SDS011;8810;48.680;8.894;2022-10-29T12:43:42;14.68;;;2.75;;
17384;SDS011;8810;48.680;8.894;2022-10-29T12:46:16;7.93;;;2.75;;
17384;SDS011;8810;48.680;8.894;2022-10-29T12:48:53;9.05;;;2.30;;
17384;SDS011;8810;48.680;8.894;2022-10-29T12:51:26;12.48;;;3.00;;
17384;SDS011;8810;48.680;8.894;2022-10-29T12:54:09;9.50;;;2.65;;
17384;SDS011;8810;48.680;8.894;2022-10-29T12:56:41;10.70;;;2.70;;
17384;SDS011;8810;48.680;8.894;2022-10-29T12:59:28;11.73;;;2.90;;
17384;SDS011;8810;48.680;8.894;2022-10-29T13:05:13;10.13;;;2.72;;
17384;SDS011;8810;48.680;8.894;2022-10-29T13:10:52;6.97;;;2.60;;
17384;SDS011;8810;48.680;8.894;2022-10-29T13:13:22;13.30;;;2.80;;
17384;SDS011;8810;48.680;8.894;2022-10-29T13:16:06;10.43;;;2.55;;
17384;SDS011;8810;48.680;8.894;2022-10-29T13:18:47;14.73;;;3.08;;
17384;SDS011;8810;48.680;8.894;2022-10-29T13:24:20;14.20;;;2.90;;
17384;SDS011;8810;48.680;8.894;2022-10-29T13:26:56;8.27;;;2.72;;
17384;SDS011;8810;48.680;8.894;2022-10-29T13:29:41;10.50;;;2.75;;
17384;SDS011;8810;48.680;8.894;2022-10-29T13:32:31;9.98;;;2.80;;
17384;SDS011;8810;48.680;8.894;2022-10-29T13:35:01;12.43;;;2.85;;
17384;SDS011;8810;48.680;8.894;2022-10-29T13:40:40;10.18;;;2.97;;
17384;SDS011;8810;48.680;8.894;2022-10-29T13:43:25;11.15;;;3.10;;
17384;SDS011;8810;48.680;8.894;2022-10-29T13:46:00;16.83;;;3.58;;
17384;SDS011;8810;48.680;8.894;2022-10-29T13:48:40;13.20;;;2.88;;
17384;SDS011;8810;48.680;8.894;2022-10-29T13:51:13;12.45;;;3.00;;
17384;SDS011;8810;48.680;8.894;2022-10-29T13:53:42;13.95;;;3.20;;
17384;SDS011;8810;48.680;8.894;2022-10-29T13:56:18;13.18;;;3.00;;
17384;SDS011;8810;48.680;8.894;2022-10-29T13:58:52;11.65;;;3.17;;
17384;SDS011;8810;48.680;8.894;2022-10-29T14:01:20;9.82;;;2.88;;
17384;SDS011;8810;48.680;8.894;2022-10-29T14:03:53;10.43;;;2.50;;
17384;SDS011;8810;48.680;8.894;2022-10-29T14:06:27;8.43;;;2.70;;
17384;SDS011;8810;48.680;8.894;2022-10-29T14:09:00;10.15;;;2.58;;
17384;SDS011;8810;48.680;8.894;2022-10-29T14:11:38;11.70;;;2.80;;
17384;SDS011;8810;48.680;8.894;2022-10-29T14:14:13;10.65;;;3.30;;
17384;SDS011;8810;48.680;8.894;2022-10-29T14:17:09;16.38;;;3.30;;
17384;SDS011;8810;48.680;8.894;2022-10-29T14:19:41;13.45;;;2.67;;
17384;SDS011;8810;48.680;8.894;2022-10-29T14:30:34;7.30;;;2.80;;
17384;SDS011;8810;48.680;8.894;2022-10-29T14:33:01;15.13;;;3.45;;
17384;SDS011;8810;48.680;8.894;2022-10-29T14:35:41;11.77;;;3.15;;
17384;SDS011;8810;48.680;8.894;2022-10-29T14:38:10;16.77;;;3.10;;
17384;SDS011;8810;48.680;8.894;2022-10-29T14:40:39;13.60;;;3.05;;
17384;SDS011;8810;48.680;8.894;2022-10-29T14:43:11;12.20;;;3.05;;
17384;SDS011;8810;48.680;8.894;2022-10-29T14:45:46;11.95;;;3.22;;
17384;SDS011;8810;48.680;8.894;2022-10-29T14:48:13;12.20;;;3.03;;
17384;SDS011;8810;48.680;8.894;2022-10-29T14:50:43;8.95;;;3.00;;
17384;SDS011;8810;48.680;8.894;2022-10-29T14:53:24;10.25;;;2.88;;
17384;SDS011;8810;48.680;8.894;2022-10-29T14:55:54;9.65;;;2.80;;
17384;SDS011;8810;48.680;8.894;2022-10-29T14:58:23;10.68;;;3.15;;
17384;SDS011;8810;48.680;8.894;2022-10-29T15:00:52;10.20;;;3.38;;
17384;SDS011;8810;48.680;8.894;2022-10-29T15:03:21;8.80;;;3.15;;
17384;SDS011;8810;48.680;8.894;2022-10-29T15:05:50;9.10;;;3.40;;
17384;SDS011;8810;48.680;8.894;2022-10-29T15:08:21;16.02;;;3.88;;
17384;SDS011;8810;48.680;8.894;2022-10-29T15:10:55;15.10;;;4.15;;
17384;SDS011;8810;48.680;8.894;2022-10-29T15:13:23;18.23;;;4.53;;
17384;SDS011;8810;48.680;8.894;2022-10-29T15:15:58;14.27;;;3.55;;
17384;SDS011;8810;48.680;8.894;2022-10-29T15:18:27;11.23;;;3.17;;
17384;SDS011;8810;48.680;8.894;2022-10-29T15:20:55;8.20;;;3.65;;
17384;SDS011;8810;48.680;8.894;2022-10-29T15:23:25;15.00;;;3.75;;
17384;SDS011;8810;48.680;8.894;2022-10-29T15:25:56;18.05;;;4.32;;
17384;SDS011;8810;48.680;8.894;2022-10-29T15:28:26;12.45;;;4.30;;
17384;SDS011;8810;48.680;8.894;2022-10-29T15:30:55;14.63;;;4.30;;
17384;SDS011;8810;48.680;8.894;2022-10-29T15:33:26;17.42;;;4.18;;
17384;SDS011;8810;48.680;8.894;2022-10-29T15:35:56;10.43;;;4.30;;
17384;SDS011;8810;48.680;8.894;2022-10-29T15:41:33;13.38;;;3.90;;
17384;SDS011;8810;48.680;8.894;2022-10-29T15:44:02;15.68;;;4.03;;